createdAt,value
2023-02-19T00:00:08.182Z,98001.97
2023-02-19T00:03:19.006Z,97991.84
2023-02-19T00:06:32.127Z,97999.75
2023-02-19T00:09:37.626Z,97997.44
2023-02-19T00:12:44.177Z,97999.06
2023-02-19T00:15:49.742Z,97959.00
2023-02-19T00:18:59.404Z,97988.91
2023-02-19T00:22:07.960Z,97987.28
2023-02-19T00:25:14.529Z,97986.13
2023-02-19T00:28:20.141Z,97993.75
2023-02-19T00:31:32.216Z,98001.59
2023-02-19T00:34:39.137Z,97990.84
2023-02-19T00:37:48.692Z,97978.53
2023-02-19T00:40:54.903Z,97978.88
2023-02-19T00:44:05.732Z,97985.28
2023-02-19T00:47:11.468Z,97980.09
2023-02-19T00:50:19.613Z,97984.72
2023-02-19T00:53:27.887Z,97981.34
2023-02-19T00:56:34.766Z,97984.56
2023-02-19T00:59:40.251Z,97979.84
2023-02-19T01:02:47.315Z,97970.25
2023-02-19T01:05:53.079Z,97982.47
2023-02-19T01:09:02.670Z,97968.19
2023-02-19T01:12:08.847Z,97989.06
2023-02-19T01:15:15.282Z,97976.03
2023-02-19T01:18:21.003Z,97965.84
2023-02-19T01:21:31.548Z,97942.25
2023-02-19T01:24:40.773Z,97003.75
2023-02-19T01:27:47.461Z,97957.56
2023-02-19T01:30:53.026Z,97583.06
2023-02-19T01:34:04.685Z,97947.56
2023-02-19T01:37:12.358Z,97902.84
2023-02-19T01:40:22.462Z,97945.16
2023-02-19T01:43:28.229Z,97933.66
2023-02-19T01:46:36.276Z,97918.47
2023-02-19T01:49:49.782Z,97934.88
2023-02-19T01:52:56.155Z,97937.03
2023-02-19T01:56:06.977Z,97931.81
2023-02-19T01:59:14.456Z,97921.88
2023-02-19T02:02:20.684Z,97911.78
2023-02-19T02:05:45.407Z,97907.06
2023-02-19T02:09:08.868Z,97910.19
2023-02-19T02:12:18.238Z,97909.72
2023-02-19T02:15:24.321Z,97905.19
2023-02-19T02:18:55.330Z,97892.22
2023-02-19T02:22:14.693Z,97897.44
2023-02-19T02:25:47.103Z,97897.28
2023-02-19T02:29:41.938Z,97891.38
2023-02-19T02:33:04.984Z,97727.53
2023-02-19T02:36:20.044Z,97887.16
2023-02-19T02:39:31.116Z,97890.22
2023-02-19T02:42:43.747Z,97872.19
2023-02-19T02:45:52.219Z,97878.25
2023-02-19T02:49:16.400Z,97867.78
2023-02-19T02:52:35.400Z,97881.28
2023-02-19T02:55:48.729Z,97873.28
2023-02-19T02:59:00.471Z,97810.00
2023-02-19T03:02:11.683Z,97866.81
2023-02-19T03:05:43.438Z,97860.41
2023-02-19T03:09:00.509Z,97842.06
2023-02-19T03:12:28.758Z,97861.69
2023-02-19T03:16:15.337Z,97866.72
2023-02-19T03:19:28.013Z,97870.75
2023-02-19T03:22:43.777Z,97870.09
2023-02-19T03:26:04.479Z,97881.03
2023-02-19T03:29:28.078Z,97874.47
2023-02-19T03:32:50.552Z,97852.25
2023-02-19T03:36:05.212Z,97841.66
2023-02-19T03:39:23.384Z,97867.94
2023-02-19T03:42:45.235Z,97873.09
2023-02-19T03:46:10.874Z,97872.66
2023-02-19T03:49:30.271Z,97872.56
2023-02-19T03:52:57.056Z,97866.69
2023-02-19T03:56:17.620Z,97861.75
2023-02-19T03:59:38.093Z,97858.06
2023-02-19T04:02:59.754Z,97856.34
2023-02-19T04:06:13.565Z,97831.28
2023-02-19T04:09:24.372Z,97840.41
2023-02-19T04:12:47.844Z,97829.63
2023-02-19T04:16:01.190Z,97849.78
2023-02-19T04:19:15.434Z,97797.13
2023-02-19T04:22:25.703Z,97840.03
2023-02-19T04:25:34.306Z,97792.69
2023-02-19T04:28:46.092Z,97840.91
2023-02-19T04:31:51.799Z,97838.53
2023-02-19T04:34:58.125Z,97765.63
2023-02-19T04:38:04.426Z,97824.41
2023-02-19T04:41:12.028Z,97819.00
2023-02-19T04:44:20.456Z,97814.72
2023-02-19T04:47:26.792Z,97813.00
2023-02-19T04:50:32.217Z,97795.31
2023-02-19T04:53:40.341Z,97786.16
2023-02-19T04:56:45.818Z,97792.72
2023-02-19T04:59:55.125Z,97779.41
2023-02-19T05:03:00.495Z,97782.25
2023-02-19T05:06:09.924Z,97769.31
2023-02-19T05:09:15.498Z,97761.16
2023-02-19T05:12:22.009Z,97740.50
2023-02-19T05:15:30.147Z,97759.00
2023-02-19T05:18:37.713Z,97759.19
2023-02-19T05:21:43.408Z,97761.78
2023-02-19T05:24:50.085Z,97754.75
2023-02-19T05:28:16.128Z,97740.84
2023-02-19T05:31:25.660Z,97745.88
2023-02-19T05:34:31.288Z,97763.94
2023-02-19T05:37:37.586Z,97765.25
2023-02-19T05:40:44.760Z,97767.28
2023-02-19T05:43:54.188Z,97752.16
2023-02-19T05:47:02.417Z,97773.69
2023-02-19T05:50:09.985Z,97766.88
2023-02-19T05:53:16.099Z,97773.44
2023-02-19T05:56:43.874Z,97767.56
2023-02-19T05:59:49.307Z,97755.00
2023-02-19T06:02:59.358Z,97719.72
2023-02-19T06:06:07.256Z,97750.34
2023-02-19T06:09:14.496Z,97753.81
2023-02-19T06:12:20.176Z,97761.75
2023-02-19T06:15:26.706Z,97757.13
2023-02-19T06:18:34.997Z,97754.25
2023-02-19T06:21:41.709Z,97763.03
2023-02-19T06:24:47.127Z,97762.16
2023-02-19T06:27:53.400Z,97762.91
2023-02-19T06:30:58.820Z,97755.34
2023-02-19T06:34:09.824Z,97761.41
2023-02-19T06:37:15.322Z,97766.81
2023-02-19T06:40:21.987Z,97739.00
2023-02-19T06:43:27.378Z,97732.19
2023-02-19T06:46:34.336Z,97749.28
2023-02-19T06:49:43.179Z,97749.75
2023-02-19T06:52:49.405Z,97751.47
2023-02-19T06:56:01.562Z,97744.22
2023-02-19T06:59:11.364Z,97740.16
2023-02-19T07:02:17.118Z,97735.09
2023-02-19T07:05:26.838Z,97739.06
2023-02-19T07:08:32.475Z,97725.16
2023-02-19T07:11:42.669Z,97731.03
2023-02-19T07:14:48.326Z,97738.81
2023-02-19T07:17:54.632Z,97737.84
2023-02-19T07:21:10.439Z,97742.50
2023-02-19T07:24:16.989Z,97728.41
2023-02-19T07:27:22.800Z,97745.97
2023-02-19T07:30:29.533Z,97730.47
2023-02-19T07:33:35.219Z,97713.63
2023-02-19T07:36:44.612Z,97736.03
2023-02-19T07:39:50.093Z,97723.00
2023-02-19T07:42:56.930Z,97718.63
2023-02-19T07:46:05.386Z,97717.41
2023-02-19T07:49:11.724Z,97713.38
2023-02-19T07:52:19.881Z,97707.97
2023-02-19T07:55:26.179Z,97712.00
2023-02-19T07:58:32.253Z,97713.31
2023-02-19T08:01:55.019Z,97683.25
2023-02-19T08:05:01.074Z,97675.53
2023-02-19T08:08:12.403Z,97692.56
2023-02-19T08:11:33.784Z,97691.03
2023-02-19T08:14:40.163Z,97697.81
2023-02-19T08:17:45.918Z,97703.88
2023-02-19T08:20:52.498Z,97694.56
2023-02-19T08:24:00.801Z,97712.63
2023-02-19T08:27:13.685Z,97702.56
2023-02-19T08:30:19.312Z,97716.28
2023-02-19T08:33:26.056Z,97715.63
2023-02-19T08:36:31.544Z,97730.06
2023-02-19T08:39:40.563Z,97735.00
2023-02-19T08:42:46.636Z,97731.38
2023-02-19T08:45:58.502Z,97730.22
2023-02-19T08:49:03.989Z,97740.84
2023-02-19T08:52:10.240Z,97728.78
2023-02-19T08:55:18.866Z,97729.66
2023-02-19T08:58:26.476Z,97712.38
2023-02-19T09:01:32.157Z,97713.69
2023-02-19T09:04:39.415Z,97709.75
2023-02-19T09:07:45.693Z,97713.41
2023-02-19T09:11:04.990Z,97730.56
2023-02-19T09:14:10.538Z,97730.47
2023-02-19T09:17:16.826Z,97750.25
2023-02-19T09:20:23.107Z,97734.09
2023-02-19T09:23:29.407Z,97738.28
2023-02-19T09:26:38.634Z,97735.63
2023-02-19T09:29:45.336Z,97757.69
2023-02-19T09:32:51.050Z,97764.09
2023-02-19T09:35:57.634Z,97763.59
2023-02-19T09:39:04.817Z,97780.59
2023-02-19T09:42:22.610Z,97773.00
2023-02-19T09:45:30.424Z,97765.69
2023-02-19T09:48:36.750Z,97794.91
2023-02-19T09:51:49.566Z,97772.91
2023-02-19T09:54:59.636Z,97796.06
2023-02-19T09:58:30.180Z,97787.53
2023-02-19T10:01:43.690Z,97782.00
2023-02-19T10:04:53.095Z,97743.09
2023-02-19T10:08:01.854Z,97800.69
2023-02-19T10:11:10.035Z,97805.16
2023-02-19T10:14:33.013Z,97824.41
2023-02-19T10:17:38.681Z,97841.06
2023-02-19T10:20:45.168Z,97866.22
2023-02-19T10:23:57.106Z,97840.91
2023-02-19T10:27:03.999Z,97851.34
2023-02-19T10:30:25.836Z,97860.69
2023-02-19T10:33:33.375Z,97861.28
2023-02-19T10:36:45.506Z,97859.44
2023-02-19T10:39:54.347Z,97859.59
2023-02-19T10:43:04.820Z,97873.94
2023-02-19T10:46:25.072Z,97864.38
2023-02-19T10:49:37.542Z,97869.19
2023-02-19T10:52:44.083Z,97877.69
2023-02-19T10:55:49.758Z,97874.19
2023-02-19T10:58:56.278Z,97892.56
2023-02-19T11:02:20.201Z,97871.09
2023-02-19T11:05:27.019Z,97914.16
2023-02-19T11:08:37.577Z,97905.09
2023-02-19T11:11:44.276Z,97927.69
2023-02-19T11:14:50.157Z,97932.53
2023-02-19T11:18:18.433Z,97934.69
2023-02-19T11:21:33.279Z,97950.84
2023-02-19T11:24:42.106Z,97955.06
2023-02-19T11:28:05.135Z,97889.75
2023-02-19T11:31:28.018Z,97943.94
2023-02-19T11:34:36.358Z,97952.56
2023-02-19T11:38:02.582Z,97952.69
2023-02-19T11:41:23.928Z,97950.84
2023-02-19T11:44:53.750Z,97959.84
2023-02-19T11:48:30.412Z,97965.91
2023-02-19T11:52:14.502Z,97976.91
2023-02-19T11:55:46.448Z,97980.84
2023-02-19T11:59:05.154Z,97912.66
2023-02-19T12:02:57.815Z,97994.47
2023-02-19T12:06:26.203Z,98001.78
2023-02-19T12:10:01.317Z,97995.72
2023-02-19T12:13:27.414Z,98003.16
2023-02-19T12:16:46.053Z,98018.78
2023-02-19T12:20:20.962Z,98020.41
2023-02-19T12:23:59.613Z,98015.69
2023-02-19T12:27:31.430Z,98029.16
2023-02-19T12:31:06.566Z,98033.38
2023-02-19T12:35:03.180Z,98036.97
2023-02-19T12:38:26.332Z,98022.25
2023-02-19T12:41:52.053Z,98039.81
2023-02-19T12:45:13.840Z,98046.22
2023-02-19T12:48:36.143Z,98047.56
2023-02-19T12:51:50.350Z,98045.28
2023-02-19T12:55:04.634Z,98053.84
2023-02-19T12:58:22.724Z,98066.81
2023-02-19T13:01:42.744Z,98061.88
2023-02-19T13:05:02.502Z,98083.72
2023-02-19T13:08:23.855Z,98078.72
2023-02-19T13:11:39.921Z,97980.41
2023-02-19T13:14:55.147Z,98080.09
2023-02-19T13:18:08.546Z,98075.63
2023-02-19T13:21:39.628Z,98099.19
2023-02-19T13:24:47.173Z,98095.09
2023-02-19T13:28:22.741Z,98112.00
2023-02-19T13:32:01.693Z,98119.28
2023-02-19T13:35:36.676Z,98126.78
2023-02-19T13:38:47.062Z,98176.22
2023-02-19T13:41:59.426Z,98139.16
2023-02-19T13:45:09.419Z,98131.91
2023-02-19T13:48:31.608Z,98132.69
2023-02-19T13:52:07.429Z,98143.22
2023-02-19T13:55:53.240Z,98180.81
2023-02-19T13:59:03.065Z,98167.56
2023-02-19T14:02:38.222Z,98153.50
2023-02-19T14:06:06.698Z,98153.16
2023-02-19T14:09:48.719Z,98160.84
2023-02-19T14:12:54.622Z,98167.41
2023-02-19T14:16:01.108Z,98189.28
2023-02-19T14:19:15.849Z,98177.09
2023-02-19T14:23:04.389Z,98202.19
2023-02-19T14:26:13.659Z,98188.88
2023-02-19T14:29:21.714Z,98198.50
2023-02-19T14:32:28.519Z,98216.28
2023-02-19T14:35:43.462Z,98211.19
2023-02-19T14:38:56.399Z,98214.09
2023-02-19T14:42:10.840Z,98207.16
2023-02-19T14:45:23.599Z,98236.22
2023-02-19T14:48:37.894Z,98223.09
2023-02-19T14:51:51.520Z,98215.28
2023-02-19T14:55:04.370Z,98206.72
2023-02-19T14:58:22.539Z,98227.34
2023-02-19T15:01:30.079Z,98220.03
2023-02-19T15:04:40.537Z,98222.69
2023-02-19T15:07:48.334Z,98238.16
2023-02-19T15:10:53.957Z,98237.47
2023-02-19T15:14:09.152Z,98251.00
2023-02-19T15:17:27.588Z,98244.31
2023-02-19T15:20:40.236Z,98257.34
2023-02-19T15:23:45.861Z,98265.16
2023-02-19T15:26:56.291Z,98277.19
2023-02-19T15:30:04.871Z,98270.91
2023-02-19T15:33:22.315Z,98270.25
2023-02-19T15:36:34.639Z,98291.50
2023-02-19T15:39:47.594Z,98299.50
2023-02-19T15:42:53.369Z,98287.84
2023-02-19T15:46:12.783Z,98303.25
2023-02-19T15:49:31.197Z,98318.50
2023-02-19T15:52:51.696Z,98321.69
2023-02-19T15:56:10.345Z,98325.34
2023-02-19T15:59:30.666Z,98326.06
2023-02-19T16:02:40.022Z,98341.19
2023-02-19T16:05:46.692Z,98337.91
2023-02-19T16:09:06.005Z,98357.75
2023-02-19T16:12:25.361Z,98360.69
2023-02-19T16:15:33.258Z,98357.75
2023-02-19T16:18:49.761Z,98370.81
2023-02-19T16:21:57.157Z,98376.84
2023-02-19T16:25:08.676Z,98280.84
2023-02-19T16:28:17.699Z,98381.31
2023-02-19T16:31:27.097Z,98400.28
2023-02-19T16:34:47.095Z,98394.78
2023-02-19T16:38:02.639Z,98405.22
2023-02-19T16:41:19.233Z,98422.72
2023-02-19T16:44:37.741Z,98421.97
2023-02-19T16:47:48.479Z,98438.66
2023-02-19T16:50:57.711Z,98429.97
2023-02-19T16:54:03.255Z,98454.75
2023-02-19T16:57:10.816Z,98458.59
2023-02-19T17:00:22.204Z,98474.19
2023-02-19T17:03:29.649Z,98483.75
2023-02-19T17:06:39.657Z,98461.53
2023-02-19T17:09:46.952Z,98478.75
2023-02-19T17:12:53.310Z,98469.69
2023-02-19T17:16:00.037Z,98478.66
2023-02-19T17:19:07.628Z,98469.19
2023-02-19T17:22:17.942Z,98473.00
2023-02-19T17:25:24.479Z,98482.22
2023-02-19T17:28:30.881Z,98490.41
2023-02-19T17:31:36.849Z,98491.69
2023-02-19T17:34:43.244Z,98497.44
2023-02-19T17:37:53.377Z,98501.75
2023-02-19T17:40:59.905Z,98499.69
2023-02-19T17:44:05.357Z,98518.75
2023-02-19T17:47:11.711Z,98532.28
2023-02-19T17:50:21.163Z,98534.06
2023-02-19T17:53:30.425Z,98534.41
2023-02-19T17:56:36.034Z,98536.19
2023-02-19T17:59:42.299Z,98541.19
2023-02-19T18:02:47.995Z,98539.38
2023-02-19T18:05:54.775Z,98545.97
2023-02-19T18:09:03.045Z,98549.75
2023-02-19T18:12:10.320Z,98550.25
2023-02-19T18:15:22.485Z,98554.94
2023-02-19T18:18:28.797Z,98571.13
2023-02-19T18:21:34.312Z,98570.38
2023-02-19T18:24:49.983Z,98591.44
2023-02-19T18:27:56.191Z,98583.34
2023-02-19T18:31:02.706Z,98595.69
2023-02-19T18:34:08.908Z,98595.03
2023-02-19T18:37:15.309Z,98598.56
2023-02-19T18:40:26.048Z,98593.44
2023-02-19T18:43:32.421Z,98597.69
2023-02-19T18:46:37.867Z,98589.72
2023-02-19T18:49:48.843Z,98616.72
2023-02-19T18:52:54.583Z,98605.28
2023-02-19T18:56:05.547Z,98606.84
2023-02-19T18:59:11.191Z,98621.69
2023-02-19T19:02:17.991Z,98623.41
2023-02-19T19:05:24.825Z,98575.97
2023-02-19T19:08:31.223Z,98632.28
2023-02-19T19:11:41.463Z,98627.69
2023-02-19T19:14:48.956Z,98631.16
2023-02-19T19:17:55.178Z,98640.41
2023-02-19T19:21:03.654Z,98642.47
2023-02-19T19:24:10.004Z,98643.47
2023-02-19T19:27:22.635Z,98638.50
2023-02-19T19:30:28.933Z,98639.38
2023-02-19T19:33:35.419Z,98651.97
2023-02-19T19:36:41.153Z,98653.63
2023-02-19T19:39:47.527Z,98650.09
2023-02-19T19:42:57.603Z,98658.88
2023-02-19T19:46:08.912Z,98668.47
2023-02-19T19:49:14.672Z,98662.25
2023-02-19T19:52:21.262Z,98662.44
2023-02-19T19:55:27.238Z,98660.53
2023-02-19T19:58:37.577Z,98656.53
2023-02-19T20:01:51.952Z,98672.88
2023-02-19T20:04:58.717Z,98667.97
2023-02-19T20:08:04.496Z,98669.63
2023-02-19T20:11:11.300Z,98664.63
2023-02-19T20:14:22.527Z,98654.50
2023-02-19T20:17:29.309Z,98670.66
2023-02-19T20:20:34.906Z,98668.13
2023-02-19T20:23:42.425Z,98677.53
2023-02-19T20:26:48.258Z,98659.66
2023-02-19T20:29:57.687Z,98670.97
2023-02-19T20:33:03.468Z,98678.56
2023-02-19T20:36:12.187Z,98688.94
2023-02-19T20:39:19.000Z,98676.78
2023-02-19T20:42:25.358Z,98695.47
2023-02-19T20:45:34.162Z,98705.69
2023-02-19T20:48:40.635Z,98694.44
2023-02-19T20:51:48.508Z,98701.53
2023-02-19T20:54:58.863Z,98710.34
2023-02-19T20:58:04.339Z,98697.44
2023-02-19T21:01:14.733Z,98712.00
2023-02-19T21:04:20.733Z,98716.41
2023-02-19T21:07:28.439Z,98723.31
2023-02-19T21:10:35.142Z,98713.34
2023-02-19T21:13:46.126Z,98720.47
2023-02-19T21:16:54.407Z,98728.03
2023-02-19T21:20:01.089Z,98746.91
2023-02-19T21:23:07.144Z,98753.22
2023-02-19T21:26:13.893Z,98757.22
2023-02-19T21:29:23.536Z,98766.03
2023-02-19T21:32:32.695Z,98760.00
2023-02-19T21:35:38.126Z,98765.16
2023-02-19T21:38:44.520Z,98773.75
2023-02-19T21:41:50.860Z,98775.69
2023-02-19T21:44:57.192Z,98770.53
2023-02-19T21:48:05.688Z,98758.84
2023-02-19T21:51:12.001Z,98777.59
2023-02-19T21:54:21.290Z,98778.50
2023-02-19T21:57:27.745Z,98778.34
2023-02-19T22:00:34.094Z,98782.72
2023-02-19T22:03:43.739Z,98787.91
2023-02-19T22:06:49.545Z,98786.22
2023-02-19T22:09:55.986Z,98787.94
2023-02-19T22:13:01.458Z,98784.53
2023-02-19T22:16:08.372Z,98791.44
2023-02-19T22:19:17.112Z,98774.25
2023-02-19T22:22:23.620Z,98792.25
2023-02-19T22:25:29.151Z,98794.97
2023-02-19T22:28:35.488Z,98808.75
2023-02-19T22:31:41.079Z,98807.19
2023-02-19T22:34:50.521Z,98819.34
2023-02-19T22:37:56.185Z,98819.38
2023-02-19T22:41:02.643Z,98829.69
2023-02-19T22:44:08.602Z,98820.28
2023-02-19T22:47:14.851Z,98820.34
2023-02-19T22:50:26.627Z,98822.88
2023-02-19T22:53:32.925Z,98819.53
2023-02-19T22:56:38.329Z,98823.03
2023-02-19T22:59:44.673Z,98829.13
2023-02-19T23:02:51.015Z,98838.69
2023-02-19T23:06:00.352Z,98842.94
2023-02-19T23:09:11.048Z,98846.28
2023-02-19T23:12:17.500Z,98841.00
2023-02-19T23:15:23.124Z,98860.88
2023-02-19T23:18:29.964Z,98848.78
2023-02-19T23:21:38.431Z,98853.81
2023-02-19T23:24:45.039Z,98855.72
2023-02-19T23:27:50.377Z,98855.59
2023-02-19T23:30:56.920Z,98851.94
2023-02-19T23:34:02.372Z,98852.66
2023-02-19T23:37:11.655Z,98859.69
2023-02-19T23:40:17.642Z,98869.16
2023-02-19T23:43:24.379Z,98862.16
2023-02-19T23:46:29.858Z,98845.19
2023-02-19T23:49:36.219Z,98847.69
2023-02-19T23:52:44.696Z,98844.31
2023-02-19T23:55:51.840Z,98846.00
2023-02-19T23:58:57.794Z,98838.22
